sensor_id;sensor_type;location;lat;lon;timestamp;pressure;altitude;pressure_sealevel;temperature;humidity
27202;BME280;14717;46.924;15.474;2024-03-08T00:02:35;98132.28;;;2.49;100.00
27202;BME280;14717;46.924;15.474;2024-03-08T00:05:01;98134.41;;;2.47;100.00
27202;BME280;14717;46.924;15.474;2024-03-08T00:07:27;98136.41;;;2.51;100.00
27202;BME280;14717;46.924;15.474;2024-03-08T00:09:53;98144.84;;;2.61;100.00
27202;BME280;14717;46.924;15.474;2024-03-08T00:12:18;98140.38;;;2.78;100.00
27202;BME280;14717;46.924;15.474;2024-03-08T00:14:43;98136.66;;;2.84;100.00
27202;BME280;14717;46.924;15.474;2024-03-08T00:17:10;98133.81;;;2.90;100.00
27202;BME280;14717;46.924;15.474;2024-03-08T00:19:35;98132.53;;;2.93;100.00
27202;BME280;14717;46.924;15.474;2024-03-08T00:22:00;98140.44;;;2.94;100.00
27202;BME280;14717;46.924;15.474;2024-03-08T00:24:26;98139.97;;;2.97;100.00
27202;BME280;14717;46.924;15.474;2024-03-08T00:26:51;98143.66;;;3.02;100.00
27202;BME280;14717;46.924;15.474;2024-03-08T00:29:16;98136.06;;;3.04;100.00
27202;BME280;14717;46.924;15.474;2024-03-08T00:31:42;98140.72;;;2.93;100.00
27202;BME280;14717;46.924;15.474;2024-03-08T00:34:07;98140.59;;;2.88;100.00
27202;BME280;14717;46.924;15.474;2024-03-08T00:36:37;98131.22;;;2.84;100.00
27202;BME280;14717;46.924;15.474;2024-03-08T00:39:02;98133.22;;;2.99;100.00
27202;BME280;14717;46.924;15.474;2024-03-08T00:41:31;98130.63;;;3.04;100.00
27202;BME280;14717;46.924;15.474;2024-03-08T00:43:57;98128.81;;;3.10;100.00
27202;BME280;14717;46.924;15.474;2024-03-08T00:46:22;98129.38;;;3.23;100.00
27202;BME280;14717;46.924;15.474;2024-03-08T00:48:48;98115.50;;;3.25;100.00
27202;BME280;14717;46.924;15.474;2024-03-08T00:51:13;98117.16;;;3.26;100.00
27202;BME280;14717;46.924;15.474;2024-03-08T00:53:40;98110.16;;;3.18;100.00
27202;BME280;14717;46.924;15.474;2024-03-08T00:56:07;98107.56;;;3.23;100.00
27202;BME280;14717;46.924;15.474;2024-03-08T00:58:36;98115.03;;;3.16;100.00
27202;BME280;14717;46.924;15.474;2024-03-08T01:01:01;98113.34;;;3.27;100.00
27202;BME280;14717;46.924;15.474;2024-03-08T01:03:27;98106.59;;;3.29;100.00
27202;BME280;14717;46.924;15.474;2024-03-08T01:05:52;98106.34;;;3.31;100.00
27202;BME280;14717;46.924;15.474;2024-03-08T01:08:18;98096.06;;;3.21;100.00
27202;BME280;14717;46.924;15.474;2024-03-08T01:10:43;98102.47;;;3.15;100.00
27202;BME280;14717;46.924;15.474;2024-03-08T01:13:08;98106.28;;;3.14;100.00
27202;BME280;14717;46.924;15.474;2024-03-08T01:15:34;98105.06;;;3.10;100.00
27202;BME280;14717;46.924;15.474;2024-03-08T01:18:00;98102.34;;;3.10;100.00
27202;BME280;14717;46.924;15.474;2024-03-08T01:20:26;98100.72;;;3.09;100.00
27202;BME280;14717;46.924;15.474;2024-03-08T01:22:53;98099.50;;;3.05;100.00
27202;BME280;14717;46.924;15.474;2024-03-08T01:25:18;98102.47;;;3.15;100.00
27202;BME280;14717;46.924;15.474;2024-03-08T01:27:43;98100.75;;;2.87;100.00
27202;BME280;14717;46.924;15.474;2024-03-08T01:30:12;98096.94;;;2.88;100.00
27202;BME280;14717;46.924;15.474;2024-03-08T01:32:37;98097.03;;;3.04;100.00
27202;BME280;14717;46.924;15.474;2024-03-08T01:35:03;98099.38;;;3.12;100.00
27202;BME280;14717;46.924;15.474;2024-03-08T01:37:29;98089.44;;;3.17;100.00
27202;BME280;14717;46.924;15.474;2024-03-08T01:39:54;98094.47;;;3.25;100.00
27202;BME280;14717;46.924;15.474;2024-03-08T01:42:20;98083.47;;;3.20;100.00
27202;BME280;14717;46.924;15.474;2024-03-08T01:44:45;98089.03;;;3.25;100.00
27202;BME280;14717;46.924;15.474;2024-03-08T01:47:11;98082.50;;;3.26;100.00
27202;BME280;14717;46.924;15.474;2024-03-08T01:49:37;98081.03;;;3.07;100.00
27202;BME280;14717;46.924;15.474;2024-03-08T01:52:03;98087.31;;;2.96;100.00
27202;BME280;14717;46.924;15.474;2024-03-08T01:54:29;98092.63;;;3.14;100.00
27202;BME280;14717;46.924;15.474;2024-03-08T01:56:56;98095.47;;;3.19;100.00
27202;BME280;14717;46.924;15.474;2024-03-08T01:59:24;98089.75;;;3.32;100.00
27202;BME280;14717;46.924;15.474;2024-03-08T02:01:54;98086.91;;;3.27;100.00
27202;BME280;14717;46.924;15.474;2024-03-08T02:04:20;98087.19;;;3.03;100.00
27202;BME280;14717;46.924;15.474;2024-03-08T02:06:46;98088.78;;;2.88;100.00
27202;BME280;14717;46.924;15.474;2024-03-08T02:09:13;98081.53;;;2.82;100.00
27202;BME280;14717;46.924;15.474;2024-03-08T02:11:41;98083.91;;;2.78;100.00
27202;BME280;14717;46.924;15.474;2024-03-08T02:14:06;98096.13;;;2.76;100.00
27202;BME280;14717;46.924;15.474;2024-03-08T02:16:31;98093.16;;;2.77;100.00
27202;BME280;14717;46.924;15.474;2024-03-08T02:18:58;98085.81;;;2.78;100.00
27202;BME280;14717;46.924;15.474;2024-03-08T02:21:23;98088.91;;;2.70;100.00
27202;BME280;14717;46.924;15.474;2024-03-08T02:23:49;98091.88;;;2.68;100.00
27202;BME280;14717;46.924;15.474;2024-03-08T02:26:17;98088.66;;;2.60;100.00
27202;BME280;14717;46.924;15.474;2024-03-08T02:28:44;98085.34;;;2.58;100.00
27202;BME280;14717;46.924;15.474;2024-03-08T02:31:09;98090.69;;;2.53;100.00
27202;BME280;14717;46.924;15.474;2024-03-08T02:33:35;98093.66;;;2.63;100.00
27202;BME280;14717;46.924;15.474;2024-03-08T02:36:00;98081.44;;;2.65;100.00
27202;BME280;14717;46.924;15.474;2024-03-08T02:38:26;98077.75;;;2.83;100.00
27202;BME280;14717;46.924;15.474;2024-03-08T02:40:53;98076.78;;;2.66;100.00
27202;BME280;14717;46.924;15.474;2024-03-08T02:43:19;98071.84;;;2.63;100.00
27202;BME280;14717;46.924;15.474;2024-03-08T02:45:45;98073.84;;;2.67;100.00
27202;BME280;14717;46.924;15.474;2024-03-08T02:48:11;98079.63;;;2.71;100.00
27202;BME280;14717;46.924;15.474;2024-03-08T02:50:37;98076.91;;;2.71;100.00
27202;BME280;14717;46.924;15.474;2024-03-08T02:53:04;98072.78;;;2.68;100.00
27202;BME280;14717;46.924;15.474;2024-03-08T02:55:30;98073.47;;;2.64;100.00
27202;BME280;14717;46.924;15.474;2024-03-08T02:57:56;98073.38;;;2.70;100.00
27202;BME280;14717;46.924;15.474;2024-03-08T03:00:22;98078.94;;;2.75;100.00
27202;BME280;14717;46.924;15.474;2024-03-08T03:02:49;98076.44;;;2.74;100.00
27202;BME280;14717;46.924;15.474;2024-03-08T03:05:21;98073.25;;;2.77;100.00
27202;BME280;14717;46.924;15.474;2024-03-08T03:07:47;98071.22;;;2.84;100.00
27202;BME280;14717;46.924;15.474;2024-03-08T03:10:13;98067.28;;;2.91;100.00
27202;BME280;14717;46.924;15.474;2024-03-08T03:12:42;98072.28;;;2.83;100.00
27202;BME280;14717;46.924;15.474;2024-03-08T03:15:07;98069.81;;;2.81;100.00
27202;BME280;14717;46.924;15.474;2024-03-08T03:17:33;98065.75;;;2.84;100.00
27202;BME280;14717;46.924;15.474;2024-03-08T03:19:58;98069.94;;;2.75;100.00
27202;BME280;14717;46.924;15.474;2024-03-08T03:22:24;98063.88;;;2.73;100.00
27202;BME280;14717;46.924;15.474;2024-03-08T03:24:50;98063.50;;;2.81;100.00
27202;BME280;14717;46.924;15.474;2024-03-08T03:27:17;98062.22;;;2.83;100.00
27202;BME280;14717;46.924;15.474;2024-03-08T03:29:43;98064.91;;;2.95;100.00
27202;BME280;14717;46.924;15.474;2024-03-08T03:32:13;98071.41;;;3.05;100.00
27202;BME280;14717;46.924;15.474;2024-03-08T03:34:39;98066.69;;;2.89;100.00
27202;BME280;14717;46.924;15.474;2024-03-08T03:37:05;98068.97;;;2.81;100.00
27202;BME280;14717;46.924;15.474;2024-03-08T03:39:32;98071.09;;;2.79;100.00
27202;BME280;14717;46.924;15.474;2024-03-08T03:41:58;98066.00;;;2.82;100.00
27202;BME280;14717;46.924;15.474;2024-03-08T03:44:24;98067.56;;;2.78;100.00
27202;BME280;14717;46.924;15.474;2024-03-08T03:46:49;98062.22;;;2.72;100.00
27202;BME280;14717;46.924;15.474;2024-03-08T03:49:16;98066.75;;;2.66;100.00
27202;BME280;14717;46.924;15.474;2024-03-08T03:51:42;98065.31;;;2.64;100.00
27202;BME280;14717;46.924;15.474;2024-03-08T03:54:07;98067.56;;;2.67;100.00
27202;BME280;14717;46.924;15.474;2024-03-08T03:56:32;98066.63;;;2.73;100.00
27202;BME280;14717;46.924;15.474;2024-03-08T03:58:58;98070.97;;;2.74;100.00
27202;BME280;14717;46.924;15.474;2024-03-08T04:01:23;98070.75;;;2.75;100.00
27202;BME280;14717;46.924;15.474;2024-03-08T04:03:49;98076.56;;;2.79;100.00
27202;BME280;14717;46.924;15.474;2024-03-08T04:06:14;98073.09;;;2.95;100.00
27202;BME280;14717;46.924;15.474;2024-03-08T04:08:40;98075.25;;;2.93;100.00
27202;BME280;14717;46.924;15.474;2024-03-08T04:11:06;98073.09;;;2.95;100.00
27202;BME280;14717;46.924;15.474;2024-03-08T04:13:33;98074.03;;;3.00;100.00
27202;BME280;14717;46.924;15.474;2024-03-08T04:15:59;98076.16;;;3.09;100.00
27202;BME280;14717;46.924;15.474;2024-03-08T04:18:25;98076.97;;;3.10;100.00
27202;BME280;14717;46.924;15.474;2024-03-08T04:20:50;98065.69;;;3.18;100.00
27202;BME280;14717;46.924;15.474;2024-03-08T04:23:15;98075.16;;;3.15;100.00
27202;BME280;14717;46.924;15.474;2024-03-08T04:25:43;98077.75;;;3.22;100.00
27202;BME280;14717;46.924;15.474;2024-03-08T04:28:08;98075.47;;;3.02;100.00
27202;BME280;14717;46.924;15.474;2024-03-08T04:30:37;98068.34;;;3.01;100.00
27202;BME280;14717;46.924;15.474;2024-03-08T04:33:03;98075.09;;;2.99;100.00
27202;BME280;14717;46.924;15.474;2024-03-08T04:35:29;98079.34;;;3.06;100.00
27202;BME280;14717;46.924;15.474;2024-03-08T04:37:55;98076.84;;;3.16;100.00
27202;BME280;14717;46.924;15.474;2024-03-08T04:40:22;98071.97;;;3.18;100.00
27202;BME280;14717;46.924;15.474;2024-03-08T04:42:48;98067.69;;;3.22;100.00
27202;BME280;14717;46.924;15.474;2024-03-08T04:45:16;98072.53;;;3.20;100.00
27202;BME280;14717;46.924;15.474;2024-03-08T04:47:42;98083.25;;;3.10;100.00
27202;BME280;14717;46.924;15.474;2024-03-08T04:50:08;98070.94;;;2.96;100.00
27202;BME280;14717;46.924;15.474;2024-03-08T04:52:34;98076.31;;;2.92;100.00
27202;BME280;14717;46.924;15.474;2024-03-08T04:54:59;98078.44;;;2.90;100.00
27202;BME280;14717;46.924;15.474;2024-03-08T04:57:24;98079.59;;;3.05;100.00
27202;BME280;14717;46.924;15.474;2024-03-08T04:59:50;98080.09;;;2.91;100.00
27202;BME280;14717;46.924;15.474;2024-03-08T05:02:16;98084.72;;;2.79;100.00
27202;BME280;14717;46.924;15.474;2024-03-08T05:04:42;98072.13;;;2.89;100.00
27202;BME280;14717;46.924;15.474;2024-03-08T05:07:08;98075.13;;;2.88;100.00
27202;BME280;14717;46.924;15.474;2024-03-08T05:09:33;98072.19;;;2.66;100.00
27202;BME280;14717;46.924;15.474;2024-03-08T05:11:59;98087.00;;;2.59;100.00
27202;BME280;14717;46.924;15.474;2024-03-08T05:14:25;98075.16;;;2.65;100.00
27202;BME280;14717;46.924;15.474;2024-03-08T05:16:50;98081.53;;;2.82;100.00
27202;BME280;14717;46.924;15.474;2024-03-08T05:19:16;98088.38;;;2.95;100.00
27202;BME280;14717;46.924;15.474;2024-03-08T05:21:43;98083.75;;;3.07;100.00
27202;BME280;14717;46.924;15.474;2024-03-08T05:24:09;98079.34;;;3.06;100.00
27202;BME280;14717;46.924;15.474;2024-03-08T05:26:35;98083.97;;;3.17;100.00
27202;BME280;14717;46.924;15.474;2024-03-08T05:29:00;98085.50;;;3.13;100.00
27202;BME280;14717;46.924;15.474;2024-03-08T05:31:26;98077.53;;;3.23;100.00
27202;BME280;14717;46.924;15.474;2024-03-08T05:33:51;98088.41;;;3.35;100.00
27202;BME280;14717;46.924;15.474;2024-03-08T05:36:19;98078.31;;;3.35;100.00
27202;BME280;14717;46.924;15.474;2024-03-08T05:38:44;98085.50;;;3.13;100.00
27202;BME280;14717;46.924;15.474;2024-03-08T05:41:10;98083.97;;;3.17;100.00
27202;BME280;14717;46.924;15.474;2024-03-08T05:43:37;98088.13;;;3.08;100.00
27202;BME280;14717;46.924;15.474;2024-03-08T05:46:03;98082.94;;;2.95;100.00
27202;BME280;14717;46.924;15.474;2024-03-08T05:48:29;98091.38;;;2.83;100.00
27202;BME280;14717;46.924;15.474;2024-03-08T05:50:57;98091.28;;;2.78;100.00
27202;BME280;14717;46.924;15.474;2024-03-08T05:53:22;98094.81;;;2.90;100.00
27202;BME280;14717;46.924;15.474;2024-03-08T05:55:48;98081.97;;;3.01;100.00
27202;BME280;14717;46.924;15.474;2024-03-08T05:58:14;98084.00;;;3.06;100.00
27202;BME280;14717;46.924;15.474;2024-03-08T06:00:40;98088.94;;;3.09;100.00
27202;BME280;14717;46.924;15.474;2024-03-08T06:03:05;98082.34;;;2.94;100.00
27202;BME280;14717;46.924;15.474;2024-03-08T06:05:30;98096.84;;;2.60;100.00
27202;BME280;14717;46.924;15.474;2024-03-08T06:07:56;98095.63;;;2.45;100.00
27202;BME280;14717;46.924;15.474;2024-03-08T06:10:21;98094.25;;;2.53;100.00
27202;BME280;14717;46.924;15.474;2024-03-08T06:12:47;98096.84;;;2.60;100.00
27202;BME280;14717;46.924;15.474;2024-03-08T06:15:12;98087.00;;;2.82;100.00
27202;BME280;14717;46.924;15.474;2024-03-08T06:17:41;98091.09;;;2.95;100.00
27202;BME280;14717;46.924;15.474;2024-03-08T06:20:07;98103.00;;;2.78;100.00
27202;BME280;14717;46.924;15.474;2024-03-08T06:22:41;98101.81;;;2.74;100.00
27202;BME280;14717;46.924;15.474;2024-03-08T06:25:10;98110.59;;;2.65;100.00
27202;BME280;14717;46.924;15.474;2024-03-08T06:27:39;98111.06;;;2.51;100.00
27202;BME280;14717;46.924;15.474;2024-03-08T06:30:05;98104.31;;;2.53;100.00
27202;BME280;14717;46.924;15.474;2024-03-08T06:32:34;98114.47;;;2.46;100.00
27202;BME280;14717;46.924;15.474;2024-03-08T06:35:01;98116.47;;;2.28;100.00
27202;BME280;14717;46.924;15.474;2024-03-08T06:37:27;98118.38;;;2.27;100.00
27202;BME280;14717;46.924;15.474;2024-03-08T06:39:53;98121.09;;;2.27;100.00
27202;BME280;14717;46.924;15.474;2024-03-08T06:42:20;98125.28;;;2.64;100.00
27202;BME280;14717;46.924;15.474;2024-03-08T06:44:45;98127.91;;;2.82;100.00
27202;BME280;14717;46.924;15.474;2024-03-08T06:47:15;98128.13;;;2.92;100.00
27202;BME280;14717;46.924;15.474;2024-03-08T06:49:44;98136.78;;;2.77;100.00
27202;BME280;14717;46.924;15.474;2024-03-08T06:52:10;98134.63;;;2.79;100.00
27202;BME280;14717;46.924;15.474;2024-03-08T06:54:36;98133.22;;;2.88;100.00
27202;BME280;14717;46.924;15.474;2024-03-08T06:57:03;98129.81;;;2.81;100.00
27202;BME280;14717;46.924;15.474;2024-03-08T06:59:28;98131.56;;;2.76;100.00
27202;BME280;14717;46.924;15.474;2024-03-08T07:01:54;98133.81;;;2.90;100.00
27202;BME280;14717;46.924;15.474;2024-03-08T07:04:19;98134.38;;;3.15;100.00
27202;BME280;14717;46.924;15.474;2024-03-08T07:06:47;98138.66;;;3.22;100.00
27202;BME280;14717;46.924;15.474;2024-03-08T07:09:14;98133.66;;;3.31;100.00
27202;BME280;14717;46.924;15.474;2024-03-08T07:11:42;98128.56;;;3.23;100.00
27202;BME280;14717;46.924;15.474;2024-03-08T07:14:07;98134.16;;;3.16;100.00
27202;BME280;14717;46.924;15.474;2024-03-08T07:16:34;98126.31;;;3.20;100.00
27202;BME280;14717;46.924;15.474;2024-03-08T07:19:01;98134.81;;;3.35;100.00
27202;BME280;14717;46.924;15.474;2024-03-08T07:21:26;98126.03;;;3.44;100.00
27202;BME280;14717;46.924;15.474;2024-03-08T07:23:51;98126.84;;;3.44;100.00
27202;BME280;14717;46.924;15.474;2024-03-08T07:26:26;98119.38;;;3.40;100.00
27202;BME280;14717;46.924;15.474;2024-03-08T07:28:51;98130.03;;;3.41;100.00
27202;BME280;14717;46.924;15.474;2024-03-08T07:31:17;98129.34;;;3.46;100.00
27202;BME280;14717;46.924;15.474;2024-03-08T07:33:52;98128.13;;;3.53;100.00
27202;BME280;14717;46.924;15.474;2024-03-08T07:36:18;98132.59;;;3.59;100.00
27202;BME280;14717;46.924;15.474;2024-03-08T07:38:44;98136.34;;;3.42;100.00
27202;BME280;14717;46.924;15.474;2024-03-08T07:41:12;98137.69;;;3.28;100.00
27202;BME280;14717;46.924;15.474;2024-03-08T07:43:38;98148.84;;;3.15;100.00
27202;BME280;14717;46.924;15.474;2024-03-08T07:46:03;98143.03;;;3.12;100.00
27202;BME280;14717;46.924;15.474;2024-03-08T07:48:28;98144.00;;;3.17;100.00
27202;BME280;14717;46.924;15.474;2024-03-08T07:50:55;98143.72;;;3.30;100.00
27202;BME280;14717;46.924;15.474;2024-03-08T07:53:21;98139.69;;;3.33;100.00
27202;BME280;14717;46.924;15.474;2024-03-08T07:55:47;98143.38;;;3.27;100.00
27202;BME280;14717;46.924;15.474;2024-03-08T07:58:12;98134.72;;;3.30;100.00
27202;BME280;14717;46.924;15.474;2024-03-08T08:00:38;98149.06;;;3.25;100.00
27202;BME280;14717;46.924;15.474;2024-03-08T08:03:04;98145.75;;;3.23;100.00
27202;BME280;14717;46.924;15.474;2024-03-08T08:05:30;98143.34;;;3.38;100.00
27202;BME280;14717;46.924;15.474;2024-03-08T08:08:01;98145.81;;;3.51;100.00
27202;BME280;14717;46.924;15.474;2024-03-08T08:10:28;98144.88;;;3.57;100.00
27202;BME280;14717;46.924;15.474;2024-03-08T08:12:54;98140.13;;;3.52;100.00
27202;BME280;14717;46.924;15.474;2024-03-08T08:15:19;98140.34;;;3.51;100.00
27202;BME280;14717;46.924;15.474;2024-03-08T08:17:45;98153.75;;;3.64;100.00
27202;BME280;14717;46.924;15.474;2024-03-08T08:20:11;98147.94;;;3.60;100.00
27202;BME280;14717;46.924;15.474;2024-03-08T08:22:38;98142.19;;;3.73;100.00
27202;BME280;14717;46.924;15.474;2024-03-08T08:25:05;98129.22;;;3.80;100.00
27202;BME280;14717;46.924;15.474;2024-03-08T08:27:30;98133.44;;;3.87;100.00
27202;BME280;14717;46.924;15.474;2024-03-08T08:29:56;98137.31;;;4.03;100.00
27202;BME280;14717;46.924;15.474;2024-03-08T08:32:21;98139.31;;;4.23;100.00
27202;BME280;14717;46.924;15.474;2024-03-08T08:34:47;98135.13;;;4.32;100.00
27202;BME280;14717;46.924;15.474;2024-03-08T08:37:13;98134.97;;;4.39;100.00
27202;BME280;14717;46.924;15.474;2024-03-08T08:39:38;98133.47;;;4.48;100.00
27202;BME280;14717;46.924;15.474;2024-03-08T08:42:04;98133.56;;;4.53;100.00
27202;BME280;14717;46.924;15.474;2024-03-08T08:44:29;98133.06;;;4.56;100.00
27202;BME280;14717;46.924;15.474;2024-03-08T08:46:56;98134.78;;;4.62;100.00
27202;BME280;14717;46.924;15.474;2024-03-08T08:49:22;98130.25;;;4.51;100.00
27202;BME280;14717;46.924;15.474;2024-03-08T08:51:52;98131.00;;;4.63;100.00
27202;BME280;14717;46.924;15.474;2024-03-08T08:54:18;98129.22;;;4.89;100.00
27202;BME280;14717;46.924;15.474;2024-03-08T08:56:43;98133.22;;;4.98;100.00
27202;BME280;14717;46.924;15.474;2024-03-08T08:59:09;98130.06;;;5.06;100.00
27202;BME280;14717;46.924;15.474;2024-03-08T09:01:35;98129.03;;;5.12;100.00
27202;BME280;14717;46.924;15.474;2024-03-08T09:04:00;98124.88;;;5.26;100.00
27202;BME280;14717;46.924;15.474;2024-03-08T09:06:25;98110.53;;;5.40;100.00
27202;BME280;14717;46.924;15.474;2024-03-08T09:08:51;98112.50;;;5.45;100.00
27202;BME280;14717;46.924;15.474;2024-03-08T09:11:16;98113.63;;;5.48;100.00
27202;BME280;14717;46.924;15.474;2024-03-08T09:13:44;98125.38;;;5.65;100.00
27202;BME280;14717;46.924;15.474;2024-03-08T09:16:11;98120.66;;;5.40;100.00
27202;BME280;14717;46.924;15.474;2024-03-08T09:18:36;98115.75;;;5.04;100.00
27202;BME280;14717;46.924;15.474;2024-03-08T09:21:01;98120.44;;;5.25;100.00
27202;BME280;14717;46.924;15.474;2024-03-08T09:23:28;98115.69;;;5.58;100.00
27202;BME280;14717;46.924;15.474;2024-03-08T09:25:58;98112.97;;;5.79;100.00
27202;BME280;14717;46.924;15.474;2024-03-08T09:28:23;98109.72;;;5.82;100.00
27202;BME280;14717;46.924;15.474;2024-03-08T09:30:49;98112.06;;;5.95;100.00
27202;BME280;14717;46.924;15.474;2024-03-08T09:33:15;98101.78;;;6.07;100.00
27202;BME280;14717;46.924;15.474;2024-03-08T09:35:46;98110.25;;;6.05;100.00
27202;BME280;14717;46.924;15.474;2024-03-08T09:38:13;98115.03;;;6.15;100.00
27202;BME280;14717;46.924;15.474;2024-03-08T09:40:41;98106.34;;;6.28;100.00
27202;BME280;14717;46.924;15.474;2024-03-08T09:43:06;98115.56;;;6.43;100.00
27202;BME280;14717;46.924;15.474;2024-03-08T09:45:35;98107.34;;;6.43;100.00
27202;BME280;14717;46.924;15.474;2024-03-08T09:48:02;98097.91;;;6.65;100.00
27202;BME280;14717;46.924;15.474;2024-03-08T09:50:28;98108.41;;;6.73;100.00
27202;BME280;14717;46.924;15.474;2024-03-08T09:52:55;98103.94;;;6.62;100.00
27202;BME280;14717;46.924;15.474;2024-03-08T09:55:22;98106.06;;;6.55;100.00
27202;BME280;14717;46.924;15.474;2024-03-08T09:57:48;98105.03;;;6.61;100.00
27202;BME280;14717;46.924;15.474;2024-03-08T10:00:33;98100.28;;;6.88;100.00
27202;BME280;14717;46.924;15.474;2024-03-08T10:03:02;98101.38;;;6.82;100.00
27202;BME280;14717;46.924;15.474;2024-03-08T10:05:28;98107.38;;;6.79;100.00
27202;BME280;14717;46.924;15.474;2024-03-08T10:07:55;98107.28;;;6.69;100.00
27202;BME280;14717;46.924;15.474;2024-03-08T10:10:20;98102.50;;;6.55;100.00
27202;BME280;14717;46.924;15.474;2024-03-08T10:12:48;98107.22;;;6.59;100.00
27202;BME280;14717;46.924;15.474;2024-03-08T10:15:15;98105.03;;;6.61;100.00
27202;BME280;14717;46.924;15.474;2024-03-08T10:17:42;98103.94;;;6.62;100.00
27202;BME280;14717;46.924;15.474;2024-03-08T10:20:18;98097.03;;;6.91;100.00
27202;BME280;14717;46.924;15.474;2024-03-08T10:22:44;98100.72;;;6.75;100.00
27202;BME280;14717;46.924;15.474;2024-03-08T10:25:11;98098.09;;;6.90;100.00
27202;BME280;14717;46.924;15.474;2024-03-08T10:27:39;98091.22;;;7.28;99.76
27202;BME280;14717;46.924;15.474;2024-03-08T10:30:10;98094.06;;;7.43;97.47
27202;BME280;14717;46.924;15.474;2024-03-08T10:32:37;98091.75;;;7.25;96.81
27202;BME280;14717;46.924;15.474;2024-03-08T10:35:03;98092.00;;;7.24;97.86
27202;BME280;14717;46.924;15.474;2024-03-08T10:37:29;98088.50;;;7.33;95.00
27202;BME280;14717;46.924;15.474;2024-03-08T10:40:04;98089.63;;;7.37;94.48
27202;BME280;14717;46.924;15.474;2024-03-08T10:42:56;98095.09;;;7.37;93.85
27202;BME280;14717;46.924;15.474;2024-03-08T10:45:35;98088.91;;;7.11;94.25
27202;BME280;14717;46.924;15.474;2024-03-08T10:50:41;98085.94;;;6.76;99.25
27202;BME280;14717;46.924;15.474;2024-03-08T10:53:07;98091.25;;;6.87;98.59
27202;BME280;14717;46.924;15.474;2024-03-08T10:55:37;98084.97;;;7.38;96.19
27202;BME280;14717;46.924;15.474;2024-03-08T10:58:05;98083.44;;;7.66;90.68
27202;BME280;14717;46.924;15.474;2024-03-08T11:00:33;98079.06;;;7.80;90.72
27202;BME280;14717;46.924;15.474;2024-03-08T11:02:58;98077.16;;;7.76;85.90
27202;BME280;14717;46.924;15.474;2024-03-08T11:08:01;98074.16;;;7.82;86.80
27202;BME280;14717;46.924;15.474;2024-03-08T11:10:26;98075.00;;;7.88;88.55
27202;BME280;14717;46.924;15.474;2024-03-08T11:12:52;98065.06;;;7.82;88.09
27202;BME280;14717;46.924;15.474;2024-03-08T11:15:17;98058.97;;;7.65;86.78
27202;BME280;14717;46.924;15.474;2024-03-08T11:17:50;98059.78;;;7.70;84.18
27202;BME280;14717;46.924;15.474;2024-03-08T11:20:17;98061.22;;;7.83;85.72
27202;BME280;14717;46.924;15.474;2024-03-08T11:23:02;98049.44;;;8.02;85.55
27202;BME280;14717;46.924;15.474;2024-03-08T11:28:26;98048.13;;;8.14;86.40
27202;BME280;14717;46.924;15.474;2024-03-08T11:33:31;98043.38;;;8.05;88.08
27202;BME280;14717;46.924;15.474;2024-03-08T11:36:23;98049.19;;;7.99;88.06
27202;BME280;14717;46.924;15.474;2024-03-08T11:38:50;98043.44;;;8.15;88.93
27202;BME280;14717;46.924;15.474;2024-03-08T11:41:24;98044.56;;;8.29;82.20
27202;BME280;14717;46.924;15.474;2024-03-08T11:44:02;98033.84;;;8.47;82.19
27202;BME280;14717;46.924;15.474;2024-03-08T11:46:30;98029.72;;;8.25;81.59
27202;BME280;14717;46.924;15.474;2024-03-08T11:48:56;98033.28;;;8.20;82.98
27202;BME280;14717;46.924;15.474;2024-03-08T11:51:21;98031.63;;;8.19;82.54
27202;BME280;14717;46.924;15.474;2024-03-08T11:53:49;98027.72;;;8.05;82.99
27202;BME280;14717;46.924;15.474;2024-03-08T11:56:15;98025.78;;;8.06;84.41
27202;BME280;14717;46.924;15.474;2024-03-08T11:58:41;98020.81;;;7.98;83.70
27202;BME280;14717;46.924;15.474;2024-03-08T12:01:08;98023.28;;;7.90;84.34
27202;BME280;14717;46.924;15.474;2024-03-08T12:03:38;98022.69;;;7.68;83.64
27202;BME280;14717;46.924;15.474;2024-03-08T12:06:04;98020.47;;;7.60;83.90
27202;BME280;14717;46.924;15.474;2024-03-08T12:08:32;98016.63;;;7.61;84.42
27202;BME280;14717;46.924;15.474;2024-03-08T12:10:58;98019.91;;;7.58;84.52
27202;BME280;14717;46.924;15.474;2024-03-08T12:13:31;98011.94;;;7.62;85.39
27202;BME280;14717;46.924;15.474;2024-03-08T12:16:06;98018.88;;;7.84;85.92
27202;BME280;14717;46.924;15.474;2024-03-08T12:18:38;98003.50;;;7.93;84.78
27202;BME280;14717;46.924;15.474;2024-03-08T12:21:07;98003.50;;;7.98;84.45
27202;BME280;14717;46.924;15.474;2024-03-08T12:23:34;98007.34;;;8.02;84.50
27202;BME280;14717;46.924;15.474;2024-03-08T12:26:16;98007.38;;;8.11;84.96
27202;BME280;14717;46.924;15.474;2024-03-08T12:28:43;98009.31;;;8.21;84.55
27202;BME280;14717;46.924;15.474;2024-03-08T12:31:13;97999.34;;;7.95;85.39
27202;BME280;14717;46.924;15.474;2024-03-08T12:33:52;97994.16;;;7.99;84.51
27202;BME280;14717;46.924;15.474;2024-03-08T12:36:19;97988.94;;;7.97;82.72
27202;BME280;14717;46.924;15.474;2024-03-08T12:38:48;97984.78;;;8.04;83.73
27202;BME280;14717;46.924;15.474;2024-03-08T12:41:14;97977.69;;;8.13;82.30
27202;BME280;14717;46.924;15.474;2024-03-08T12:43:40;97977.69;;;8.23;82.77
27202;BME280;14717;46.924;15.474;2024-03-08T12:46:06;97969.44;;;8.43;84.67
27202;BME280;14717;46.924;15.474;2024-03-08T12:48:35;97973.00;;;8.39;82.09
27202;BME280;14717;46.924;15.474;2024-03-08T12:51:06;97966.97;;;8.37;81.12
27202;BME280;14717;46.924;15.474;2024-03-08T12:53:32;97969.72;;;8.32;81.88
27202;BME280;14717;46.924;15.474;2024-03-08T12:55:58;97969.44;;;8.48;83.34
27202;BME280;14717;46.924;15.474;2024-03-08T12:58:23;97963.94;;;8.48;81.55
27202;BME280;14717;46.924;15.474;2024-03-08T13:00:51;97973.56;;;8.46;81.84
27202;BME280;14717;46.924;15.474;2024-03-08T13:03:16;97963.09;;;8.43;81.35